Time;durP1;ratioP1;P1;durP2;ratioP2;P2;SDS_P1;SDS_P2;PMS_P1;PMS_P2;Temp;Humidity;BMP_temperature;BMP_pressure;BME280_temperature;BME280_humidity;BME280_pressure;Samples;Min_cycle;Max_cycle;Signal;HPM_P1;HPM_P2
2022/02/05 00:01:37;;;;;;;;;;;3.80;96.10;;;;;;5089718;28;20009;-74
2022/02/05 00:04:08;;;;;;;;;;;3.80;96.20;;;;;;5073382;28;19920;-74
2022/02/05 00:06:37;;;;;;;;;;;3.80;96.30;;;;;;5089929;28;19916;-74
2022/02/05 00:14:29;;;;;;;;;;;3.90;96.60;;;;;;5089730;28;19926;-75
2022/02/05 00:38:53;;;;;;;;;;;4.00;97.20;;;;;;5089643;28;19981;-74
2022/02/05 00:41:31;;;;;;;;;;;4.00;97.30;;;;;;5089358;28;20431;-74
2022/02/05 00:44:02;;;;;;;;;;;4.10;97.40;;;;;;5087954;28;19916;-75
2022/02/05 00:46:33;;;;;;;;;;;4.10;97.50;;;;;;5089499;28;19923;-74
2022/02/05 00:48:59;;;;;;;;;;;4.10;97.50;;;;;;5089283;28;19912;-74
2022/02/05 00:54:02;;;;;;;;;;;4.10;97.50;;;;;;5089205;28;19991;-74
2022/02/05 00:59:12;;;;;;;;;;;4.10;97.60;;;;;;5089242;28;19922;-74
2022/02/05 01:01:37;;;;;;;;;;;4.10;97.60;;;;;;5088240;28;19912;-75
2022/02/05 01:04:04;;;;;;;;;;;4.10;97.70;;;;;;5088685;28;19916;-75
2022/02/05 01:06:29;;;;;;;;;;;4.10;97.70;;;;;;5088902;28;19934;-75
2022/02/05 01:08:55;;;;;;;;;;;4.10;97.70;;;;;;5088756;28;20265;-74
2022/02/05 01:11:21;;;;;;;;;;;4.10;97.80;;;;;;5088532;28;19908;-74
2022/02/05 01:13:46;;;;;;;;;;;4.10;97.80;;;;;;5088473;28;20370;-74
2022/02/05 01:19:04;;;;;;;;;;;4.10;97.80;;;;;;5072157;28;20000;-74
2022/02/05 01:21:40;;;;;;;;;;;4.20;97.90;;;;;;5088507;28;20262;-74
2022/02/05 01:24:08;;;;;;;;;;;4.20;98.00;;;;;;5088679;28;19912;-74
2022/02/05 01:26:40;;;;;;;;;;;4.20;98.00;;;;;;5088575;28;19912;-74
2022/02/05 01:31:52;;;;;;;;;;;4.20;98.10;;;;;;5088418;28;19922;-74
2022/02/05 01:34:26;;;;;;;;;;;4.20;98.10;;;;;;5086504;28;20338;-74
2022/02/05 01:53:20;;;;;;;;;;;4.30;98.30;;;;;;5071812;28;19963;-74
2022/02/05 01:58:38;;;;;;;;;;;4.30;98.30;;;;;;5088348;28;19912;-74
2022/02/05 02:11:52;;;;;;;;;;;4.30;98.60;;;;;;5088841;28;20012;-74
2022/02/05 02:19:50;;;;;;;;;;;4.20;98.80;;;;;;5092504;28;20006;-74
2022/02/05 02:25:07;;;;;;;;;;;4.20;98.90;;;;;;5092193;28;20348;-74
2022/02/05 02:27:43;;;;;;;;;;;4.20;99.00;;;;;;5092063;28;19912;-74
2022/02/05 02:30:24;;;;;;;;;;;4.20;99.00;;;;;;5091714;28;20038;-74
2022/02/05 02:32:57;;;;;;;;;;;4.20;99.10;;;;;;5091950;28;19916;-74
2022/02/05 02:35:26;;;;;;;;;;;4.20;99.10;;;;;;5092020;28;20343;-74
2022/02/05 02:38:01;;;;;;;;;;;4.20;99.20;;;;;;5090324;28;19922;-74
2022/02/05 02:40:37;;;;;;;;;;;4.20;99.20;;;;;;5090565;28;19915;-74
2022/02/05 02:43:09;;;;;;;;;;;4.20;99.20;;;;;;5091699;28;19916;-74
2022/02/05 02:45:35;;;;;;;;;;;4.20;99.30;;;;;;5091725;28;19940;-74
2022/02/05 02:48:00;;;;;;;;;;;4.20;99.40;;;;;;5091669;28;20322;-74
2022/02/05 02:58:28;;;;;;;;;;;4.30;99.60;;;;;;5090754;28;19919;-75
2022/02/05 03:00:59;;;;;;;;;;;4.40;99.80;;;;;;5091334;28;19908;-74
2022/02/05 03:03:25;;;;;;;;;;;4.50;99.90;;;;;;5091136;28;19916;-74
2022/02/05 03:05:50;;;;;;;;;;;4.70;99.90;;;;;;5091349;28;19968;-74
2022/02/05 03:08:16;;;;;;;;;;;4.80;99.70;;;;;;5089926;28;19916;-74
2022/02/05 03:10:42;;;;;;;;;;;4.80;99.40;;;;;;5091174;28;19943;-74
2022/02/05 03:13:07;;;;;;;;;;;4.80;99.30;;;;;;5091206;28;20275;-74
2022/02/05 03:15:40;;;;;;;;;;;4.80;99.30;;;;;;5091075;28;19939;-74
2022/02/05 03:18:10;;;;;;;;;;;4.70;99.30;;;;;;5089762;28;19919;-74
2022/02/05 03:20:36;;;;;;;;;;;4.60;99.30;;;;;;5090952;28;19912;-74
2022/02/05 03:23:02;;;;;;;;;;;4.60;99.30;;;;;;5090870;28;19916;-74
2022/02/05 03:25:28;;;;;;;;;;;4.50;99.40;;;;;;5091039;28;20018;-74
2022/02/05 03:27:54;;;;;;;;;;;4.50;99.50;;;;;;5090907;28;19916;-74
2022/02/05 03:30:19;;;;;;;;;;;4.50;99.50;;;;;;5089466;28;19924;-74
2022/02/05 03:32:45;;;;;;;;;;;4.40;99.60;;;;;;5090760;28;20001;-74
2022/02/05 03:35:11;;;;;;;;;;;4.50;99.70;;;;;;5072634;28;19912;-74
2022/02/05 03:37:36;;;;;;;;;;;4.50;99.80;;;;;;5089392;28;19912;-74
2022/02/05 03:40:02;;;;;;;;;;;4.60;99.90;;;;;;5090771;28;20308;-74
2022/02/05 03:42:28;;;;;;;;;;;4.70;99.90;;;;;;5090383;28;19920;-76
2022/02/05 03:44:54;;;;;;;;;;;4.80;99.90;;;;;;5089237;28;19960;-74
2022/02/05 03:47:19;;;;;;;;;;;4.80;99.70;;;;;;5090397;28;19912;-74
2022/02/05 03:49:45;;;;;;;;;;;4.80;99.60;;;;;;5090439;28;19958;-74
2022/02/05 03:52:10;;;;;;;;;;;4.70;99.60;;;;;;5090136;28;19958;-74
2022/02/05 03:54:36;;;;;;;;;;;4.60;99.60;;;;;;5090384;28;19938;-74
2022/02/05 03:57:02;;;;;;;;;;;4.60;99.80;;;;;;5090451;28;20338;-74
2022/02/05 03:59:27;;;;;;;;;;;4.50;99.90;;;;;;5090338;28;20271;-74
2022/02/05 04:01:54;;;;;;;;;;;4.50;99.90;;;;;;5090119;28;19919;-74
2022/02/05 04:04:19;;;;;;;;;;;4.50;99.90;;;;;;5090178;28;19923;-74
2022/02/05 04:06:45;;;;;;;;;;;4.50;99.90;;;;;;5090143;28;19912;-74
2022/02/05 04:09:22;;;;;;;;;;;4.50;99.90;;;;;;5090246;28;20022;-74
2022/02/05 04:16:57;;;;;;;;;;;4.60;99.90;;;;;;5090525;28;20007;-74
2022/02/05 04:19:23;;;;;;;;;;;4.60;99.90;;;;;;5089878;28;20031;-74
2022/02/05 04:21:48;;;;;;;;;;;4.60;99.90;;;;;;5089751;28;19908;-74
2022/02/05 04:24:14;;;;;;;;;;;4.60;99.90;;;;;;5088473;28;19969;-74
2022/02/05 04:26:39;;;;;;;;;;;4.70;99.90;;;;;;5090290;28;19919;-74
2022/02/05 04:29:09;;;;;;;;;;;4.70;99.90;;;;;;5089547;28;20002;-74
2022/02/05 04:31:34;;;;;;;;;;;4.70;99.90;;;;;;5088427;28;19912;-74
2022/02/05 04:34:00;;;;;;;;;;;4.70;99.90;;;;;;5089846;28;19914;-74
2022/02/05 04:36:26;;;;;;;;;;;4.80;99.90;;;;;;5087796;28;20273;-74
2022/02/05 04:38:52;;;;;;;;;;;4.80;99.90;;;;;;5089651;28;19916;-74
2022/02/05 04:41:33;;;;;;;;;;;4.80;99.90;;;;;;5089393;28;19915;-74
2022/02/05 04:47:15;;;;;;;;;;;4.80;99.90;;;;;;5089851;28;19991;-74
2022/02/05 04:52:31;;;;;;;;;;;4.80;99.90;;;;;;5089249;28;20002;-74
2022/02/05 05:02:43;;;;;;;;;;;5.00;99.90;;;;;;5088959;28;20362;-74
2022/02/05 05:15:35;;;;;;;;;;;5.20;99.90;;;;;;5089072;28;19912;-74
2022/02/05 05:20:51;;;;;;;;;;;5.30;99.90;;;;;;5089102;28;19966;-74
2022/02/05 05:23:17;;;;;;;;;;;5.40;99.90;;;;;;5088681;28;19955;-74
2022/02/05 05:25:42;;;;;;;;;;;5.40;99.90;;;;;;5088617;28;19912;-74
2022/02/05 05:28:08;;;;;;;;;;;5.50;99.90;;;;;;5088615;28;19912;-74
2022/02/05 05:30:33;;;;;;;;;;;5.50;99.90;;;;;;5087034;28;20286;-74
2022/02/05 05:32:59;;;;;;;;;;;5.60;99.90;;;;;;5087371;28;19925;-74
2022/02/05 05:35:24;;;;;;;;;;;5.60;99.90;;;;;;5087398;28;19912;-74
2022/02/05 05:37:51;;;;;;;;;;;5.70;99.90;;;;;;5088340;28;20327;-74
2022/02/05 05:40:16;;;;;;;;;;;5.80;99.90;;;;;;5088418;28;20342;-74
2022/02/05 05:42:47;;;;;;;;;;;5.80;99.90;;;;;;5088391;28;19912;-74
2022/02/05 05:45:39;;;;;;;;;;;5.80;99.90;;;;;;5088390;28;20371;-74
2022/02/05 05:48:11;;;;;;;;;;;5.90;99.90;;;;;;5087344;28;19920;-74
2022/02/05 05:53:03;;;;;;;;;;;5.90;99.90;;;;;;5087104;28;20190;-74
2022/02/05 05:55:29;;;;;;;;;;;6.00;99.90;;;;;;5088265;28;20270;-74
2022/02/05 05:57:55;;;;;;;;;;;6.00;99.90;;;;;;5088093;28;19919;-74
2022/02/05 06:00:21;;;;;;;;;;;6.00;99.90;;;;;;5088150;28;20367;-74
2022/02/05 06:02:46;;;;;;;;;;;6.00;99.90;;;;;;5088021;28;20000;-74
2022/02/05 06:05:12;;;;;;;;;;;6.00;99.90;;;;;;5086965;28;19970;-74
2022/02/05 06:07:38;;;;;;;;;;;5.90;99.90;;;;;;5088121;28;20285;-75
2022/02/05 06:10:04;;;;;;;;;;;5.90;99.90;;;;;;5088060;28;19916;-74
2022/02/05 06:12:29;;;;;;;;;;;5.90;99.90;;;;;;5088206;28;19908;-75
2022/02/05 06:14:57;;;;;;;;;;;5.90;99.90;;;;;;5088076;28;20554;-74
2022/02/05 06:17:25;;;;;;;;;;;5.90;99.90;;;;;;5087979;28;19908;-74
2022/02/05 06:19:51;;;;;;;;;;;6.00;99.90;;;;;;5086571;28;19916;-75
2022/02/05 06:22:17;;;;;;;;;;;6.00;99.90;;;;;;5087746;28;19908;-75
2022/02/05 06:24:43;;;;;;;;;;;6.00;99.90;;;;;;5087852;28;20385;-75
2022/02/05 06:27:08;;;;;;;;;;;6.00;99.90;;;;;;5087748;28;20024;-75
2022/02/05 06:29:34;;;;;;;;;;;6.00;99.90;;;;;;5087878;28;19931;-74
2022/02/05 06:32:00;;;;;;;;;;;6.10;99.90;;;;;;5087732;28;20332;-74
2022/02/05 06:34:26;;;;;;;;;;;6.20;99.90;;;;;;5086487;28;19908;-75
2022/02/05 06:36:52;;;;;;;;;;;6.30;99.90;;;;;;5087743;28;19912;-74
2022/02/05 06:39:18;;;;;;;;;;;6.40;99.90;;;;;;5087854;28;20277;-74
2022/02/05 06:41:43;;;;;;;;;;;6.40;99.90;;;;;;5087712;28;20392;-74
2022/02/05 06:44:09;;;;;;;;;;;6.50;99.90;;;;;;5087616;28;19916;-75
2022/02/05 06:46:35;;;;;;;;;;;6.60;99.90;;;;;;5087713;28;19912;-74
2022/02/05 06:49:00;;;;;;;;;;;6.60;99.90;;;;;;5087867;28;19962;-75
2022/02/05 06:51:26;;;;;;;;;;;6.70;99.90;;;;;;5087585;28;20359;-74
2022/02/05 06:53:51;;;;;;;;;;;6.70;99.90;;;;;;5086247;28;19912;-74
2022/02/05 06:56:17;;;;;;;;;;;6.70;99.90;;;;;;5086519;28;19912;-75
2022/02/05 06:58:42;;;;;;;;;;;6.70;99.90;;;;;;5089700;28;19912;-74
2022/02/05 07:01:08;;;;;;;;;;;6.80;99.90;;;;;;5091070;28;20394;-75
2022/02/05 07:03:33;;;;;;;;;;;6.80;99.90;;;;;;5091244;28;20002;-75
2022/02/05 07:05:59;;;;;;;;;;;6.80;99.90;;;;;;5091381;28;20381;-74
2022/02/05 07:08:24;;;;;;;;;;;6.80;99.90;;;;;;5091317;28;20308;-75
2022/02/05 07:10:51;;;;;;;;;;;6.80;99.90;;;;;;5089978;28;19998;-74
2022/02/05 07:13:19;;;;;;;;;;;6.90;99.90;;;;;;5089941;28;19965;-74
2022/02/05 07:15:57;;;;;;;;;;;6.90;99.90;;;;;;5089853;28;19918;-75
2022/02/05 07:18:35;;;;;;;;;;;6.90;99.90;;;;;;5091180;28;19912;-74
2022/02/05 07:23:41;;;;;;;;;;;6.90;99.90;;;;;;5091415;28;19935;-75
2022/02/05 07:31:35;;;;;;;;;;;6.90;99.90;;;;;;5090976;28;20320;-74
2022/02/05 07:34:01;;;;;;;;;;;6.80;99.90;;;;;;5090770;28;19908;-75
2022/02/05 07:36:26;;;;;;;;;;;6.90;99.90;;;;;;5089388;28;19914;-74
2022/02/05 07:38:52;;;;;;;;;;;6.90;99.90;;;;;;5090619;28;19912;-75
2022/02/05 07:41:17;;;;;;;;;;;6.90;99.90;;;;;;5090438;28;19919;-75
2022/02/05 07:43:43;;;;;;;;;;;6.90;99.90;;;;;;5090415;28;20332;-75
2022/02/05 07:46:10;;;;;;;;;;;6.90;99.90;;;;;;5090539;28;19914;-75
2022/02/05 07:48:36;;;;;;;;;;;6.90;99.90;;;;;;5090551;28;20047;-74
2022/02/05 07:51:01;;;;;;;;;;;6.90;99.90;;;;;;5090377;28;20007;-74
2022/02/05 07:53:27;;;;;;;;;;;6.80;99.90;;;;;;5089074;28;19912;-75
2022/02/05 07:55:53;;;;;;;;;;;6.80;99.90;;;;;;5072177;28;19912;-75
2022/02/05 07:58:19;;;;;;;;;;;6.90;99.90;;;;;;5090145;28;19908;-75
2022/02/05 08:00:44;;;;;;;;;;;6.90;99.90;;;;;;5088726;28;19912;-74
2022/02/05 08:03:10;;;;;;;;;;;7.00;99.90;;;;;;5090197;28;19916;-75
2022/02/05 08:05:35;;;;;;;;;;;7.00;99.90;;;;;;5071846;28;19916;-74
2022/02/05 08:08:03;;;;;;;;;;;7.00;99.90;;;;;;5090085;28;19908;-75
2022/02/05 08:10:35;;;;;;;;;;;7.00;99.90;;;;;;5089104;28;19909;-75
2022/02/05 08:13:01;;;;;;;;;;;7.00;99.90;;;;;;5088648;28;19939;-69
2022/02/05 08:15:30;;;;;;;;;;;7.00;99.90;;;;;;5089840;28;19912;-68
2022/02/05 08:17:56;;;;;;;;;;;7.10;99.90;;;;;;5089614;28;19916;-68
2022/02/05 08:20:22;;;;;;;;;;;7.20;99.90;;;;;;5089459;28;19915;-69
2022/02/05 08:22:48;;;;;;;;;;;7.30;99.90;;;;;;5089484;28;19923;-74
2022/02/05 08:25:14;;;;;;;;;;;7.40;99.90;;;;;;5089391;28;20289;-75
2022/02/05 08:27:41;;;;;;;;;;;7.50;99.90;;;;;;5089721;28;19912;-75
2022/02/05 08:30:10;;;;;;;;;;;7.60;99.90;;;;;;5088034;28;20339;-74
2022/02/05 08:32:35;;;;;;;;;;;7.70;99.90;;;;;;5088952;28;19916;-74
2022/02/05 08:35:01;;;;;;;;;;;7.80;99.90;;;;;;5087760;28;19965;-75
2022/02/05 08:37:27;;;;;;;;;;;7.80;99.90;;;;;;5089158;28;19908;-75
2022/02/05 08:39:53;;;;;;;;;;;7.90;99.90;;;;;;5089251;28;19908;-75
2022/02/05 08:42:19;;;;;;;;;;;7.90;99.90;;;;;;5087862;28;19973;-75
2022/02/05 08:44:44;;;;;;;;;;;8.00;99.90;;;;;;5089398;28;19912;-75
2022/02/05 08:47:10;;;;;;;;;;;8.00;99.90;;;;;;5089163;28;19909;-75
2022/02/05 08:49:36;;;;;;;;;;;8.10;99.90;;;;;;5088882;28;19918;-75
2022/02/05 08:52:05;;;;;;;;;;;8.20;99.90;;;;;;5087086;28;19986;-75
2022/02/05 08:54:31;;;;;;;;;;;8.20;99.90;;;;;;5087299;28;19912;-75
2022/02/05 08:56:57;;;;;;;;;;;8.20;99.90;;;;;;5088779;28;19954;-75
2022/02/05 08:59:24;;;;;;;;;;;8.30;99.90;;;;;;5088820;28;20390;-74
2022/02/05 09:02:39;;;;;;;;;;;8.30;99.90;;;;;;5087246;28;19927;-75
2022/02/05 09:05:44;;;;;;;;;;;8.30;99.90;;;;;;5083135;28;19957;-75
2022/02/05 09:07:33;;;;;;;;;;;8.30;99.90;;;;;;5079399;28;19970;-75
2022/02/05 09:10:12;;;;;;;;;;;8.40;99.90;;;;;;5086580;28;19929;-75
2022/02/05 09:15:04;;;;;;;;;;;8.40;99.90;;;;;;5087035;28;19920;-75
2022/02/05 09:17:30;;;;;;;;;;;8.40;99.90;;;;;;5088145;28;20470;-75
2022/02/05 09:19:56;;;;;;;;;;;8.40;99.90;;;;;;5088180;28;19955;-75
2022/02/05 09:22:21;;;;;;;;;;;8.40;99.90;;;;;;5087989;28;20019;-74
2022/02/05 09:24:47;;;;;;;;;;;8.30;99.90;;;;;;5088061;28;19912;-75
2022/02/05 09:27:13;;;;;;;;;;;8.30;99.90;;;;;;5088218;28;19924;-75
2022/02/05 09:30:03;;;;;;;;;;;8.20;99.90;;;;;;5088206;28;19966;-75
2022/02/05 09:32:25;;;;;;;;;;;8.20;99.90;;;;;;5087567;28;19926;-75
2022/02/05 09:34:51;;;;;;;;;;;8.20;99.90;;;;;;5088108;28;19981;-75
2022/02/05 09:37:16;;;;;;;;;;;8.20;99.90;;;;;;5088021;28;19908;-75
2022/02/05 09:39:43;;;;;;;;;;;8.30;99.90;;;;;;5087638;28;19933;-70
2022/02/05 09:42:13;;;;;;;;;;;8.40;99.90;;;;;;5087739;28;19912;-69
2022/02/05 09:44:38;;;;;;;;;;;8.50;99.90;;;;;;5087824;28;20003;-70
2022/02/05 09:47:04;;;;;;;;;;;8.50;99.90;;;;;;5087789;28;20008;-75
2022/02/05 09:49:30;;;;;;;;;;;8.60;99.90;;;;;;5086463;28;19917;-75
2022/02/05 09:52:23;;;;;;;;;;;8.60;99.90;;;;;;5087075;28;20015;-74
2022/02/05 09:54:43;;;;;;;;;;;8.70;99.90;;;;;;5086956;28;19950;-75
2022/02/05 09:57:09;;;;;;;;;;;8.80;99.90;;;;;;5087737;28;19923;-74
2022/02/05 09:59:41;;;;;;;;;;;8.80;99.90;;;;;;5087586;28;19908;-75
2022/02/05 10:02:38;;;;;;;;;;;8.90;99.90;;;;;;5087551;28;20415;-75
2022/02/05 10:05:09;;;;;;;;;;;8.90;99.90;;;;;;5074596;28;19920;-74
2022/02/05 10:07:50;;;;;;;;;;;9.00;99.90;;;;;;5087635;28;20373;-75
2022/02/05 10:10:16;;;;;;;;;;;9.00;99.90;;;;;;5088508;28;19916;-76
2022/02/05 10:12:41;;;;;;;;;;;9.10;99.90;;;;;;5084681;28;19917;-76
2022/02/05 10:15:07;;;;;;;;;;;9.20;99.90;;;;;;5079531;28;19937;-76
2022/02/05 10:17:37;;;;;;;;;;;9.30;99.90;;;;;;5078017;28;20013;-76
2022/02/05 10:20:03;;;;;;;;;;;9.40;99.90;;;;;;5074203;28;19912;-75
2022/02/05 10:22:45;;;;;;;;;;;9.40;99.90;;;;;;5080193;28;20298;-75
2022/02/05 10:25:15;;;;;;;;;;;9.50;99.90;;;;;;5080128;28;19919;-75
2022/02/05 10:27:42;;;;;;;;;;;9.50;99.90;;;;;;5087240;28;19909;-73
2022/02/05 10:30:27;;;;;;;;;;;9.50;99.90;;;;;;5079860;28;20007;-74
2022/02/05 10:32:58;;;;;;;;;;;9.60;99.90;;;;;;5086025;28;19996;-77
2022/02/05 10:35:32;;;;;;;;;;;9.60;99.90;;;;;;5084852;28;19908;-76
2022/02/05 10:38:14;;;;;;;;;;;9.60;99.90;;;;;;5084609;28;19920;-77
2022/02/05 10:40:46;;;;;;;;;;;9.60;99.90;;;;;;5087389;28;19912;-76
2022/02/05 10:43:13;;;;;;;;;;;9.60;99.80;;;;;;5079086;28;19913;-76
2022/02/05 10:45:46;;;;;;;;;;;9.70;99.80;;;;;;5077903;28;20070;-75
2022/02/05 10:48:13;;;;;;;;;;;9.70;99.80;;;;;;5080507;28;20299;-77
2022/02/05 10:50:39;;;;;;;;;;;9.70;99.70;;;;;;5090427;28;19916;-76
2022/02/05 10:53:12;;;;;;;;;;;9.80;99.70;;;;;;5089066;28;19992;-75
2022/02/05 11:07:21;;;;;;;;;;;9.90;99.60;;;;;;5084915;28;19955;-74
2022/02/05 11:09:49;;;;;;;;;;;9.90;99.60;;;;;;5079989;28;19920;-75
2022/02/05 11:19:50;;;;;;;;;;;9.80;99.80;;;;;;5085079;28;20410;-76
2022/02/05 11:22:16;;;;;;;;;;;9.80;99.90;;;;;;5079097;28;20544;-75
2022/02/05 11:24:42;;;;;;;;;;;9.90;99.90;;;;;;5079963;28;19915;-75
2022/02/05 11:27:08;;;;;;;;;;;9.90;99.90;;;;;;5079005;28;19999;-75
2022/02/05 11:29:34;;;;;;;;;;;9.90;99.90;;;;;;5085201;28;20068;-76
2022/02/05 11:32:16;;;;;;;;;;;9.90;99.90;;;;;;5081001;28;20267;-75
2022/02/05 11:34:49;;;;;;;;;;;10.00;99.90;;;;;;5082283;28;19908;-77
2022/02/05 11:37:15;;;;;;;;;;;10.00;99.90;;;;;;5081247;28;20554;-75
2022/02/05 11:39:46;;;;;;;;;;;9.90;99.90;;;;;;5080388;28;19920;-77
2022/02/05 11:42:23;;;;;;;;;;;9.90;99.90;;;;;;5079242;28;19915;-76
2022/02/05 11:44:48;;;;;;;;;;;9.90;99.90;;;;;;5089062;28;20000;-76
2022/02/05 11:47:17;;;;;;;;;;;9.90;99.90;;;;;;5089958;28;20556;-76
2022/02/05 11:49:52;;;;;;;;;;;9.90;99.90;;;;;;5091049;28;19947;-73
2022/02/05 11:52:36;;;;;;;;;;;10.00;99.90;;;;;;5093428;28;19935;-75
2022/02/05 11:55:03;;;;;;;;;;;10.00;99.90;;;;;;5090677;28;19908;-76
2022/02/05 11:57:41;;;;;;;;;;;10.00;99.90;;;;;;5090768;28;19990;-74
2022/02/05 12:00:09;;;;;;;;;;;10.00;99.90;;;;;;5090740;28;19938;-73
2022/02/05 12:02:39;;;;;;;;;;;10.00;99.90;;;;;;5086434;28;19916;-74
2022/02/05 12:05:15;;;;;;;;;;;10.10;99.90;;;;;;5078961;28;19977;-75
2022/02/05 12:08:03;;;;;;;;;;;10.10;99.90;;;;;;5081185;28;19916;-76
2022/02/05 12:10:57;;;;;;;;;;;10.10;99.90;;;;;;5080641;28;19952;-74
2022/02/05 12:13:25;;;;;;;;;;;10.20;99.90;;;;;;5082399;28;19908;-73
2022/02/05 12:16:19;;;;;;;;;;;10.20;99.90;;;;;;5083377;28;19916;-75
2022/02/05 12:18:54;;;;;;;;;;;10.20;99.90;;;;;;5078751;28;19943;-76
2022/02/05 12:21:27;;;;;;;;;;;10.40;99.90;;;;;;5083192;28;19920;-74
2022/02/05 12:26:21;;;;;;;;;;;10.50;99.90;;;;;;5077940;28;19938;-77
2022/02/05 12:28:47;;;;;;;;;;;10.60;99.90;;;;;;5086440;28;19930;-79
2022/02/05 12:31:16;;;;;;;;;;;10.70;99.90;;;;;;5083922;28;19928;-76
2022/02/05 12:33:49;;;;;;;;;;;10.70;99.90;;;;;;5078576;28;19919;-76
2022/02/05 12:36:25;;;;;;;;;;;10.70;99.90;;;;;;5076785;28;19951;-78
2022/02/05 12:38:52;;;;;;;;;;;10.80;99.90;;;;;;5083515;28;19908;-77
2022/02/05 12:41:17;;;;;;;;;;;10.80;99.90;;;;;;5086549;28;20370;-76
2022/02/05 12:43:53;;;;;;;;;;;10.80;99.90;;;;;;5082884;28;20046;-76
2022/02/05 12:46:23;;;;;;;;;;;10.90;99.90;;;;;;5079396;28;20007;-76
2022/02/05 12:48:54;;;;;;;;;;;11.00;99.90;;;;;;5080167;28;19916;-78
2022/02/05 12:51:19;;;;;;;;;;;11.00;99.90;;;;;;5075117;28;20027;-77
2022/02/05 12:53:45;;;;;;;;;;;11.10;99.90;;;;;;5081147;28;19962;-78
2022/02/05 12:56:12;;;;;;;;;;;11.10;99.90;;;;;;5079837;28;19912;-78
2022/02/05 12:59:15;;;;;;;;;;;11.10;99.90;;;;;;5078111;28;19950;-75
2022/02/05 13:01:51;;;;;;;;;;;11.10;99.70;;;;;;5010934;28;19910;-74
2022/02/05 13:04:18;;;;;;;;;;;11.20;99.50;;;;;;5068137;28;20378;-77
2022/02/05 13:06:44;;;;;;;;;;;11.20;99.50;;;;;;5079172;28;19908;-76
2022/02/05 13:09:20;;;;;;;;;;;11.20;99.30;;;;;;5084962;28;20366;-77
2022/02/05 13:11:46;;;;;;;;;;;11.20;99.10;;;;;;5077033;28;19995;-77
2022/02/05 13:14:11;;;;;;;;;;;11.30;99.00;;;;;;5081188;28;19919;-75
2022/02/05 13:16:38;;;;;;;;;;;11.30;99.00;;;;;;5074507;28;19912;-74
2022/02/05 13:19:20;;;;;;;;;;;11.30;99.10;;;;;;5082886;28;19916;-76
2022/02/05 13:36:29;;;;;;;;;;;11.30;98.50;;;;;;5082254;28;20261;-76
2022/02/05 13:41:44;;;;;;;;;;;11.30;98.40;;;;;;5087455;28;20304;-74
2022/02/05 13:44:15;;;;;;;;;;;11.30;98.40;;;;;;5089271;28;19912;-77
2022/02/05 13:46:40;;;;;;;;;;;11.30;98.30;;;;;;5071865;28;19927;-76
2022/02/05 13:49:14;;;;;;;;;;;11.30;98.10;;;;;;5089464;28;19920;-77
2022/02/05 13:51:39;;;;;;;;;;;11.20;98.10;;;;;;5089690;28;19914;-75
2022/02/05 13:54:05;;;;;;;;;;;11.20;98.20;;;;;;5087819;28;19916;-75
2022/02/05 13:56:34;;;;;;;;;;;11.10;98.20;;;;;;5089392;28;19914;-77
2022/02/05 13:59:00;;;;;;;;;;;11.10;98.20;;;;;;5087479;28;19916;-75
2022/02/05 14:01:30;;;;;;;;;;;11.10;98.10;;;;;;5087448;28;19912;-77
2022/02/05 14:03:59;;;;;;;;;;;11.10;98.10;;;;;;5088841;28;19919;-76
2022/02/05 14:06:24;;;;;;;;;;;11.00;98.10;;;;;;5088853;28;20551;-76
2022/02/05 14:08:52;;;;;;;;;;;11.00;98.10;;;;;;5088015;28;20007;-75
2022/02/05 14:11:31;;;;;;;;;;;10.90;98.20;;;;;;5078529;28;20285;-77
2022/02/05 14:14:01;;;;;;;;;;;10.90;98.30;;;;;;5083689;28;19912;-76
2022/02/05 14:16:31;;;;;;;;;;;10.80;98.40;;;;;;5088401;28;19916;-78
2022/02/05 14:18:59;;;;;;;;;;;10.90;98.50;;;;;;5076321;28;19908;-76
2022/02/05 14:21:33;;;;;;;;;;;10.90;98.60;;;;;;5077616;28;19921;-75
2022/02/05 14:23:59;;;;;;;;;;;10.80;98.60;;;;;;5079387;28;19916;-74
2022/02/05 14:26:49;;;;;;;;;;;10.80;98.80;;;;;;5081187;28;20042;-77
2022/02/05 14:29:15;;;;;;;;;;;10.80;98.80;;;;;;5077397;28;19916;-75
2022/02/05 14:31:55;;;;;;;;;;;10.80;98.90;;;;;;5080027;28;19924;-76
2022/02/05 14:34:34;;;;;;;;;;;10.80;99.00;;;;;;5079902;28;20316;-76
2022/02/05 14:42:12;;;;;;;;;;;10.80;99.30;;;;;;5080211;28;19976;-76
2022/02/05 14:44:38;;;;;;;;;;;10.70;99.40;;;;;;5073924;28;20397;-76
2022/02/05 14:47:04;;;;;;;;;;;10.80;99.50;;;;;;5085501;28;19963;-75
2022/02/05 14:49:32;;;;;;;;;;;10.80;99.50;;;;;;5083056;28;19955;-76
2022/02/05 14:52:02;;;;;;;;;;;10.80;99.60;;;;;;5085352;28;20382;-75
2022/02/05 14:54:32;;;;;;;;;;;10.80;99.60;;;;;;5084734;28;19995;-76
2022/02/05 14:56:58;;;;;;;;;;;10.90;99.70;;;;;;5081075;28;19912;-77
2022/02/05 14:59:24;;;;;;;;;;;10.90;99.70;;;;;;5085850;28;19953;-76
2022/02/05 15:01:49;;;;;;;;;;;11.00;99.80;;;;;;5080552;28;20609;-74
2022/02/05 15:04:15;;;;;;;;;;;11.00;99.70;;;;;;5078835;28;19920;-75
2022/02/05 15:06:43;;;;;;;;;;;11.00;99.60;;;;;;5079138;28;20285;-75
2022/02/05 15:09:09;;;;;;;;;;;11.10;99.70;;;;;;5075932;28;19920;-74
2022/02/05 15:11:35;;;;;;;;;;;11.10;99.70;;;;;;5075413;28;20598;-77
2022/02/05 15:14:02;;;;;;;;;;;11.10;99.50;;;;;;5077084;28;19943;-77
2022/02/05 15:16:29;;;;;;;;;;;11.00;99.60;;;;;;5078606;28;20410;-77
2022/02/05 15:18:57;;;;;;;;;;;11.00;99.60;;;;;;5075284;28;19912;-74
2022/02/05 15:21:33;;;;;;;;;;;11.00;99.60;;;;;;5079817;28;20027;-76
2022/02/05 15:23:59;;;;;;;;;;;11.00;99.70;;;;;;5075721;28;21549;-74
2022/02/05 15:26:28;;;;;;;;;;;11.00;99.80;;;;;;5079148;28;19987;-77
2022/02/05 15:28:54;;;;;;;;;;;11.00;99.80;;;;;;5085796;28;20038;-75
2022/02/05 15:31:20;;;;;;;;;;;11.00;99.90;;;;;;5082854;28;19959;-75
2022/02/05 15:33:48;;;;;;;;;;;11.00;99.90;;;;;;5083059;28;19913;-75
2022/02/05 15:36:19;;;;;;;;;;;11.00;99.90;;;;;;5081646;28;19916;-76
2022/02/05 15:39:05;;;;;;;;;;;10.90;99.90;;;;;;5078052;28;19974;-75
2022/02/05 15:44:35;;;;;;;;;;;10.90;99.90;;;;;;5047236;28;19920;-75
2022/02/05 15:47:01;;;;;;;;;;;10.90;99.90;;;;;;5039553;28;20374;-76
2022/02/05 15:49:27;;;;;;;;;;;10.90;99.90;;;;;;5054135;28;19908;-76
2022/02/05 15:51:53;;;;;;;;;;;10.90;99.90;;;;;;5089970;28;20350;-77
2022/02/05 15:54:21;;;;;;;;;;;11.00;99.90;;;;;;5082621;28;19916;-78
2022/02/05 15:57:21;;;;;;;;;;;11.00;99.90;;;;;;5083630;28;19924;-76
2022/02/05 15:59:57;;;;;;;;;;;11.00;99.90;;;;;;5084508;28;19917;-76
2022/02/05 16:02:22;;;;;;;;;;;11.10;99.90;;;;;;5082716;28;19908;-76
2022/02/05 16:04:48;;;;;;;;;;;11.00;99.90;;;;;;5085128;28;20317;-76
2022/02/05 16:07:14;;;;;;;;;;;11.10;99.90;;;;;;5082599;28;19913;-76
2022/02/05 16:09:41;;;;;;;;;;;11.00;99.90;;;;;;5084125;28;19943;-76
2022/02/05 16:12:07;;;;;;;;;;;11.00;99.90;;;;;;5087338;28;19912;-78
2022/02/05 16:14:33;;;;;;;;;;;11.10;99.90;;;;;;5089997;28;19922;-77
2022/02/05 16:16:58;;;;;;;;;;;11.10;99.90;;;;;;5082428;28;19912;-76
2022/02/05 16:19:24;;;;;;;;;;;11.00;99.90;;;;;;5079305;28;19912;-74
2022/02/05 16:21:49;;;;;;;;;;;11.00;99.90;;;;;;5085008;28;20037;-77
2022/02/05 16:24:15;;;;;;;;;;;11.10;99.90;;;;;;5086765;28;19916;-76
2022/02/05 16:26:41;;;;;;;;;;;11.00;99.90;;;;;;5090953;28;20301;-75
2022/02/05 16:29:06;;;;;;;;;;;11.00;99.90;;;;;;5090275;28;19919;-76
2022/02/05 16:31:32;;;;;;;;;;;11.00;99.90;;;;;;5089695;28;20354;-75
2022/02/05 16:34:06;;;;;;;;;;;11.00;99.90;;;;;;5090806;28;19982;-76
2022/02/05 16:36:32;;;;;;;;;;;10.90;99.90;;;;;;5090513;28;20042;-76
2022/02/05 16:38:59;;;;;;;;;;;10.90;99.90;;;;;;5090314;28;19908;-76
2022/02/05 16:41:25;;;;;;;;;;;10.90;99.90;;;;;;5090473;28;19915;-75
2022/02/05 16:43:51;;;;;;;;;;;10.90;99.90;;;;;;5090025;28;20072;-75
2022/02/05 16:46:22;;;;;;;;;;;10.80;99.90;;;;;;5089913;28;20306;-74
2022/02/05 16:48:48;;;;;;;;;;;10.80;99.90;;;;;;5090103;28;20290;-74
2022/02/05 16:51:15;;;;;;;;;;;10.80;99.90;;;;;;5089883;28;19908;-75
2022/02/05 16:53:42;;;;;;;;;;;10.80;99.90;;;;;;5090731;28;20341;-75
2022/02/05 16:56:09;;;;;;;;;;;10.80;99.90;;;;;;5090361;28;19912;-77
2022/02/05 16:58:36;;;;;;;;;;;10.80;99.90;;;;;;5090605;28;20336;-77
2022/02/05 17:01:02;;;;;;;;;;;10.70;99.90;;;;;;5088834;28;20401;-75
2022/02/05 17:03:28;;;;;;;;;;;10.70;99.90;;;;;;5090627;28;19912;-77
2022/02/05 17:05:53;;;;;;;;;;;10.60;99.90;;;;;;5089230;28;20266;-76
2022/02/05 17:08:19;;;;;;;;;;;10.70;99.90;;;;;;5091163;28;19958;-76
2022/02/05 17:10:46;;;;;;;;;;;10.70;99.90;;;;;;5090830;28;19915;-77
2022/02/05 17:13:11;;;;;;;;;;;10.60;99.90;;;;;;5090365;28;20324;-73
2022/02/05 17:15:37;;;;;;;;;;;10.60;99.90;;;;;;5089671;28;19908;-78
2022/02/05 17:18:19;;;;;;;;;;;10.60;99.90;;;;;;5081571;28;19916;-75
2022/02/05 17:20:55;;;;;;;;;;;10.60;99.90;;;;;;5083958;28;20312;-76
2022/02/05 17:23:26;;;;;;;;;;;10.60;99.90;;;;;;5083410;28;20006;-76
2022/02/05 17:25:51;;;;;;;;;;;10.50;99.90;;;;;;5079423;28;20368;-77
2022/02/05 17:28:17;;;;;;;;;;;10.50;99.90;;;;;;5073830;28;20116;-76
2022/02/05 17:30:43;;;;;;;;;;;10.50;99.90;;;;;;5075796;28;19948;-75
2022/02/05 17:33:10;;;;;;;;;;;10.40;99.90;;;;;;5085067;28;19934;-75